sensor_id;sensor_type;location;lat;lon;timestamp;P1;durP1;ratioP1;P2;durP2;ratioP2
20908;SDS011;10614;53.198;6.570;2022-09-29T00:01:37;3.38;;;1.80;;
20908;SDS011;10614;53.198;6.570;2022-09-29T00:03:39;2.35;;;1.45;;
20908;SDS011;10614;53.198;6.570;2022-09-29T00:05:45;3.33;;;1.70;;
20908;SDS011;10614;53.198;6.570;2022-09-29T00:07:47;2.88;;;1.23;;
20908;SDS011;10614;53.198;6.570;2022-09-29T00:09:50;2.53;;;1.42;;
20908;SDS011;10614;53.198;6.570;2022-09-29T00:11:52;3.45;;;1.80;;
20908;SDS011;10614;53.198;6.570;2022-09-29T00:13:54;3.03;;;1.58;;
20908;SDS011;10614;53.198;6.570;2022-09-29T00:15:57;4.72;;;1.38;;
20908;SDS011;10614;53.198;6.570;2022-09-29T00:17:59;3.75;;;2.05;;
20908;SDS011;10614;53.198;6.570;2022-09-29T00:20:01;3.55;;;1.83;;
20908;SDS011;10614;53.198;6.570;2022-09-29T00:22:03;2.90;;;1.80;;
20908;SDS011;10614;53.198;6.570;2022-09-29T00:24:05;2.47;;;1.73;;
20908;SDS011;10614;53.198;6.570;2022-09-29T00:26:09;3.40;;;1.70;;
20908;SDS011;10614;53.198;6.570;2022-09-29T00:28:12;2.67;;;1.63;;
20908;SDS011;10614;53.198;6.570;2022-09-29T00:30:14;3.40;;;1.80;;
20908;SDS011;10614;53.198;6.570;2022-09-29T00:32:15;3.67;;;1.70;;
20908;SDS011;10614;53.198;6.570;2022-09-29T00:34:17;2.92;;;1.67;;
20908;SDS011;10614;53.198;6.570;2022-09-29T00:36:20;3.50;;;1.70;;
20908;SDS011;10614;53.198;6.570;2022-09-29T00:38:22;3.10;;;1.90;;
20908;SDS011;10614;53.198;6.570;2022-09-29T00:40:24;2.38;;;1.52;;
20908;SDS011;10614;53.198;6.570;2022-09-29T00:42:27;1.90;;;1.30;;
20908;SDS011;10614;53.198;6.570;2022-09-29T00:47:12;2.90;;;1.80;;
20908;SDS011;10614;53.198;6.570;2022-09-29T00:49:17;3.35;;;1.80;;
20908;SDS011;10614;53.198;6.570;2022-09-29T00:51:24;2.50;;;1.70;;
20908;SDS011;10614;53.198;6.570;2022-09-29T00:53:27;3.45;;;2.10;;
20908;SDS011;10614;53.198;6.570;2022-09-29T00:55:29;3.53;;;1.95;;
20908;SDS011;10614;53.198;6.570;2022-09-29T00:57:39;3.50;;;1.70;;
20908;SDS011;10614;53.198;6.570;2022-09-29T00:59:46;2.42;;;1.42;;
20908;SDS011;10614;53.198;6.570;2022-09-29T01:01:51;2.88;;;1.83;;
20908;SDS011;10614;53.198;6.570;2022-09-29T01:03:54;3.47;;;1.95;;
20908;SDS011;10614;53.198;6.570;2022-09-29T01:06:12;3.75;;;2.25;;
20908;SDS011;10614;53.198;6.570;2022-09-29T01:08:19;5.15;;;2.33;;
20908;SDS011;10614;53.198;6.570;2022-09-29T01:10:25;4.00;;;2.35;;
20908;SDS011;10614;53.198;6.570;2022-09-29T01:12:27;3.67;;;2.17;;
20908;SDS011;10614;53.198;6.570;2022-09-29T01:14:30;4.20;;;2.20;;
20908;SDS011;10614;53.198;6.570;2022-09-29T01:16:34;4.53;;;2.45;;
20908;SDS011;10614;53.198;6.570;2022-09-29T01:18:38;3.92;;;2.40;;
20908;SDS011;10614;53.198;6.570;2022-09-29T01:20:42;3.53;;;2.13;;
20908;SDS011;10614;53.198;6.570;2022-09-29T01:25:35;4.43;;;2.55;;
20908;SDS011;10614;53.198;6.570;2022-09-29T01:30:38;4.43;;;2.55;;
20908;SDS011;10614;53.198;6.570;2022-09-29T01:32:56;4.90;;;2.72;;
20908;SDS011;10614;53.198;6.570;2022-09-29T01:35:11;4.25;;;2.40;;
20908;SDS011;10614;53.198;6.570;2022-09-29T01:37:20;5.97;;;2.78;;
20908;SDS011;10614;53.198;6.570;2022-09-29T01:39:32;4.57;;;2.85;;
20908;SDS011;10614;53.198;6.570;2022-09-29T01:41:39;5.10;;;2.70;;
20908;SDS011;10614;53.198;6.570;2022-09-29T01:43:51;5.53;;;3.20;;
20908;SDS011;10614;53.198;6.570;2022-09-29T01:45:58;6.03;;;2.78;;
20908;SDS011;10614;53.198;6.570;2022-09-29T01:48:03;4.60;;;2.38;;
20908;SDS011;10614;53.198;6.570;2022-09-29T01:50:11;6.28;;;2.47;;
20908;SDS011;10614;53.198;6.570;2022-09-29T01:52:17;4.47;;;2.45;;
20908;SDS011;10614;53.198;6.570;2022-09-29T01:54:26;3.45;;;2.28;;
20908;SDS011;10614;53.198;6.570;2022-09-29T01:56:34;4.45;;;2.20;;
20908;SDS011;10614;53.198;6.570;2022-09-29T01:58:41;5.60;;;2.75;;
20908;SDS011;10614;53.198;6.570;2022-09-29T02:00:50;4.50;;;2.60;;
20908;SDS011;10614;53.198;6.570;2022-09-29T02:02:57;4.80;;;2.70;;
20908;SDS011;10614;53.198;6.570;2022-09-29T02:05:07;5.53;;;2.97;;
20908;SDS011;10614;53.198;6.570;2022-09-29T02:07:15;5.85;;;3.25;;
20908;SDS011;10614;53.198;6.570;2022-09-29T02:09:22;6.57;;;3.55;;
20908;SDS011;10614;53.198;6.570;2022-09-29T02:11:28;5.93;;;3.38;;
20908;SDS011;10614;53.198;6.570;2022-09-29T02:13:35;7.32;;;3.63;;
20908;SDS011;10614;53.198;6.570;2022-09-29T02:15:41;6.53;;;2.85;;
20908;SDS011;10614;53.198;6.570;2022-09-29T02:17:47;6.13;;;3.40;;
20908;SDS011;10614;53.198;6.570;2022-09-29T02:19:52;6.00;;;3.20;;
20908;SDS011;10614;53.198;6.570;2022-09-29T02:21:54;6.75;;;3.58;;
20908;SDS011;10614;53.198;6.570;2022-09-29T02:23:56;7.72;;;3.40;;
20908;SDS011;10614;53.198;6.570;2022-09-29T02:25:58;6.95;;;3.20;;
20908;SDS011;10614;53.198;6.570;2022-09-29T02:28:01;7.50;;;3.17;;
20908;SDS011;10614;53.198;6.570;2022-09-29T02:30:03;6.43;;;3.58;;
20908;SDS011;10614;53.198;6.570;2022-09-29T02:32:06;5.45;;;3.15;;
20908;SDS011;10614;53.198;6.570;2022-09-29T02:34:09;7.03;;;3.75;;
20908;SDS011;10614;53.198;6.570;2022-09-29T02:36:20;5.95;;;3.20;;
20908;SDS011;10614;53.198;6.570;2022-09-29T02:38:34;7.53;;;3.75;;
20908;SDS011;10614;53.198;6.570;2022-09-29T02:40:45;6.18;;;3.25;;
20908;SDS011;10614;53.198;6.570;2022-09-29T02:45:28;6.53;;;3.47;;
20908;SDS011;10614;53.198;6.570;2022-09-29T02:47:48;6.78;;;3.80;;
20908;SDS011;10614;53.198;6.570;2022-09-29T02:50:20;5.85;;;3.50;;
20908;SDS011;10614;53.198;6.570;2022-09-29T02:52:41;7.28;;;3.60;;
20908;SDS011;10614;53.198;6.570;2022-09-29T02:54:54;6.20;;;3.47;;
20908;SDS011;10614;53.198;6.570;2022-09-29T02:57:09;7.03;;;3.30;;
20908;SDS011;10614;53.198;6.570;2022-09-29T02:59:20;6.63;;;3.50;;
20908;SDS011;10614;53.198;6.570;2022-09-29T03:01:29;7.97;;;3.97;;
20908;SDS011;10614;53.198;6.570;2022-09-29T03:03:31;6.05;;;3.25;;
20908;SDS011;10614;53.198;6.570;2022-09-29T03:05:33;6.28;;;3.35;;
20908;SDS011;10614;53.198;6.570;2022-09-29T03:07:35;4.72;;;3.00;;
20908;SDS011;10614;53.198;6.570;2022-09-29T03:09:39;4.78;;;2.90;;
20908;SDS011;10614;53.198;6.570;2022-09-29T03:11:40;8.50;;;3.40;;
20908;SDS011;10614;53.198;6.570;2022-09-29T03:13:42;6.45;;;3.47;;
20908;SDS011;10614;53.198;6.570;2022-09-29T03:15:44;6.18;;;3.15;;
20908;SDS011;10614;53.198;6.570;2022-09-29T03:17:45;6.75;;;3.72;;
20908;SDS011;10614;53.198;6.570;2022-09-29T03:19:47;6.18;;;3.20;;
20908;SDS011;10614;53.198;6.570;2022-09-29T03:21:49;9.00;;;3.75;;
20908;SDS011;10614;53.198;6.570;2022-09-29T03:23:50;7.43;;;3.30;;
20908;SDS011;10614;53.198;6.570;2022-09-29T03:25:54;6.63;;;4.03;;
20908;SDS011;10614;53.198;6.570;2022-09-29T03:27:55;7.05;;;3.50;;
20908;SDS011;10614;53.198;6.570;2022-09-29T03:29:57;6.70;;;3.70;;
20908;SDS011;10614;53.198;6.570;2022-09-29T03:31:59;7.30;;;3.58;;
20908;SDS011;10614;53.198;6.570;2022-09-29T03:34:01;6.53;;;3.53;;
20908;SDS011;10614;53.198;6.570;2022-09-29T03:36:03;5.97;;;3.67;;
20908;SDS011;10614;53.198;6.570;2022-09-29T03:38:06;6.85;;;3.60;;
20908;SDS011;10614;53.198;6.570;2022-09-29T03:40:08;6.47;;;3.80;;
20908;SDS011;10614;53.198;6.570;2022-09-29T03:42:12;7.00;;;3.88;;
20908;SDS011;10614;53.198;6.570;2022-09-29T03:44:13;7.25;;;4.13;;
20908;SDS011;10614;53.198;6.570;2022-09-29T03:46:15;8.18;;;4.63;;
20908;SDS011;10614;53.198;6.570;2022-09-29T03:48:18;9.13;;;5.18;;
20908;SDS011;10614;53.198;6.570;2022-09-29T03:50:21;11.00;;;5.80;;
20908;SDS011;10614;53.198;6.570;2022-09-29T03:52:23;8.00;;;4.57;;
20908;SDS011;10614;53.198;6.570;2022-09-29T03:54:24;9.27;;;4.93;;
20908;SDS011;10614;53.198;6.570;2022-09-29T03:56:27;9.05;;;4.60;;
20908;SDS011;10614;53.198;6.570;2022-09-29T03:58:30;6.20;;;3.65;;
20908;SDS011;10614;53.198;6.570;2022-09-29T04:00:31;7.95;;;4.00;;
20908;SDS011;10614;53.198;6.570;2022-09-29T04:02:33;7.93;;;4.18;;
20908;SDS011;10614;53.198;6.570;2022-09-29T04:04:35;8.80;;;4.25;;
20908;SDS011;10614;53.198;6.570;2022-09-29T04:06:37;7.38;;;3.75;;
20908;SDS011;10614;53.198;6.570;2022-09-29T04:08:38;6.55;;;3.85;;
20908;SDS011;10614;53.198;6.570;2022-09-29T04:10:40;7.93;;;4.00;;
20908;SDS011;10614;53.198;6.570;2022-09-29T04:12:42;7.38;;;3.53;;
20908;SDS011;10614;53.198;6.570;2022-09-29T04:14:46;6.30;;;3.97;;
20908;SDS011;10614;53.198;6.570;2022-09-29T04:16:47;8.15;;;4.40;;
20908;SDS011;10614;53.198;6.570;2022-09-29T04:18:49;7.60;;;4.22;;
20908;SDS011;10614;53.198;6.570;2022-09-29T04:20:51;6.53;;;3.33;;
20908;SDS011;10614;53.198;6.570;2022-09-29T04:22:53;6.65;;;3.85;;
20908;SDS011;10614;53.198;6.570;2022-09-29T04:24:54;6.55;;;3.70;;
20908;SDS011;10614;53.198;6.570;2022-09-29T04:26:56;7.57;;;3.72;;
20908;SDS011;10614;53.198;6.570;2022-09-29T04:28:57;7.07;;;3.45;;
20908;SDS011;10614;53.198;6.570;2022-09-29T04:31:01;7.05;;;3.75;;
20908;SDS011;10614;53.198;6.570;2022-09-29T04:33:03;6.68;;;3.85;;
20908;SDS011;10614;53.198;6.570;2022-09-29T04:35:05;6.97;;;3.45;;
20908;SDS011;10614;53.198;6.570;2022-09-29T04:37:08;6.45;;;3.50;;
20908;SDS011;10614;53.198;6.570;2022-09-29T04:39:10;6.32;;;3.05;;
20908;SDS011;10614;53.198;6.570;2022-09-29T04:41:12;7.00;;;3.38;;
20908;SDS011;10614;53.198;6.570;2022-09-29T04:43:14;8.57;;;3.70;;
20908;SDS011;10614;53.198;6.570;2022-09-29T04:45:16;6.07;;;3.25;;
20908;SDS011;10614;53.198;6.570;2022-09-29T04:47:21;7.10;;;3.45;;
20908;SDS011;10614;53.198;6.570;2022-09-29T04:49:24;5.72;;;3.50;;
20908;SDS011;10614;53.198;6.570;2022-09-29T04:51:26;7.65;;;3.22;;
20908;SDS011;10614;53.198;6.570;2022-09-29T04:53:27;5.53;;;2.90;;
20908;SDS011;10614;53.198;6.570;2022-09-29T04:55:29;6.53;;;3.28;;
20908;SDS011;10614;53.198;6.570;2022-09-29T04:57:31;4.70;;;2.88;;
20908;SDS011;10614;53.198;6.570;2022-09-29T04:59:32;5.53;;;2.92;;
20908;SDS011;10614;53.198;6.570;2022-09-29T05:01:47;6.03;;;3.40;;
20908;SDS011;10614;53.198;6.570;2022-09-29T05:03:50;6.43;;;3.20;;
20908;SDS011;10614;53.198;6.570;2022-09-29T05:05:53;5.25;;;3.17;;
20908;SDS011;10614;53.198;6.570;2022-09-29T05:07:55;5.82;;;3.10;;
20908;SDS011;10614;53.198;6.570;2022-09-29T05:09:58;5.32;;;2.95;;
20908;SDS011;10614;53.198;6.570;2022-09-29T05:12:00;4.82;;;2.58;;
20908;SDS011;10614;53.198;6.570;2022-09-29T05:14:02;4.90;;;3.08;;
20908;SDS011;10614;53.198;6.570;2022-09-29T05:16:04;5.10;;;3.00;;
20908;SDS011;10614;53.198;6.570;2022-09-29T05:18:06;7.30;;;3.42;;
20908;SDS011;10614;53.198;6.570;2022-09-29T05:20:09;6.22;;;3.58;;
20908;SDS011;10614;53.198;6.570;2022-09-29T05:22:12;6.20;;;3.40;;
20908;SDS011;10614;53.198;6.570;2022-09-29T05:24:13;5.85;;;3.05;;
20908;SDS011;10614;53.198;6.570;2022-09-29T05:26:15;7.03;;;3.95;;
20908;SDS011;10614;53.198;6.570;2022-09-29T05:28:17;6.05;;;3.53;;
20908;SDS011;10614;53.198;6.570;2022-09-29T05:30:19;5.60;;;3.15;;
20908;SDS011;10614;53.198;6.570;2022-09-29T05:32:20;5.80;;;3.08;;
20908;SDS011;10614;53.198;6.570;2022-09-29T05:34:22;6.78;;;3.75;;
20908;SDS011;10614;53.198;6.570;2022-09-29T05:36:25;5.80;;;2.97;;
20908;SDS011;10614;53.198;6.570;2022-09-29T05:38:27;6.05;;;3.45;;
20908;SDS011;10614;53.198;6.570;2022-09-29T05:40:29;7.25;;;3.90;;
20908;SDS011;10614;53.198;6.570;2022-09-29T05:42:31;7.65;;;4.15;;
20908;SDS011;10614;53.198;6.570;2022-09-29T05:44:32;6.65;;;3.63;;
20908;SDS011;10614;53.198;6.570;2022-09-29T05:46:34;7.47;;;4.03;;
20908;SDS011;10614;53.198;6.570;2022-09-29T05:48:36;8.05;;;4.15;;
20908;SDS011;10614;53.198;6.570;2022-09-29T05:50:38;8.10;;;4.32;;
20908;SDS011;10614;53.198;6.570;2022-09-29T05:52:43;7.38;;;4.13;;
20908;SDS011;10614;53.198;6.570;2022-09-29T05:54:48;8.93;;;4.22;;
20908;SDS011;10614;53.198;6.570;2022-09-29T05:56:50;7.43;;;4.45;;
20908;SDS011;10614;53.198;6.570;2022-09-29T05:58:52;8.00;;;4.63;;
20908;SDS011;10614;53.198;6.570;2022-09-29T06:00:54;9.57;;;5.03;;
20908;SDS011;10614;53.198;6.570;2022-09-29T06:02:56;7.00;;;4.20;;
20908;SDS011;10614;53.198;6.570;2022-09-29T06:04:59;9.40;;;4.45;;
20908;SDS011;10614;53.198;6.570;2022-09-29T06:07:01;8.40;;;4.80;;
20908;SDS011;10614;53.198;6.570;2022-09-29T06:09:05;7.72;;;4.35;;
20908;SDS011;10614;53.198;6.570;2022-09-29T06:11:08;8.18;;;4.63;;
20908;SDS011;10614;53.198;6.570;2022-09-29T06:13:12;9.68;;;4.72;;
20908;SDS011;10614;53.198;6.570;2022-09-29T06:15:13;8.15;;;4.55;;
20908;SDS011;10614;53.198;6.570;2022-09-29T06:17:15;8.85;;;4.57;;
20908;SDS011;10614;53.198;6.570;2022-09-29T06:19:17;7.88;;;4.50;;
20908;SDS011;10614;53.198;6.570;2022-09-29T06:21:21;8.40;;;4.97;;
20908;SDS011;10614;53.198;6.570;2022-09-29T06:23:24;8.93;;;4.47;;
20908;SDS011;10614;53.198;6.570;2022-09-29T06:25:27;8.88;;;4.70;;
20908;SDS011;10614;53.198;6.570;2022-09-29T06:27:29;8.43;;;4.93;;
20908;SDS011;10614;53.198;6.570;2022-09-29T06:29:30;9.57;;;5.20;;
20908;SDS011;10614;53.198;6.570;2022-09-29T06:31:32;11.68;;;5.35;;
20908;SDS011;10614;53.198;6.570;2022-09-29T06:33:34;9.75;;;4.90;;
20908;SDS011;10614;53.198;6.570;2022-09-29T06:35:36;7.88;;;4.90;;
20908;SDS011;10614;53.198;6.570;2022-09-29T06:37:56;9.00;;;5.15;;
20908;SDS011;10614;53.198;6.570;2022-09-29T06:39:58;12.45;;;5.63;;
20908;SDS011;10614;53.198;6.570;2022-09-29T06:42:01;10.32;;;5.15;;
20908;SDS011;10614;53.198;6.570;2022-09-29T06:44:03;10.60;;;5.05;;
20908;SDS011;10614;53.198;6.570;2022-09-29T06:46:05;11.23;;;5.53;;
20908;SDS011;10614;53.198;6.570;2022-09-29T06:48:06;8.80;;;5.22;;
20908;SDS011;10614;53.198;6.570;2022-09-29T06:50:09;9.18;;;5.43;;
20908;SDS011;10614;53.198;6.570;2022-09-29T06:52:10;10.13;;;5.35;;
20908;SDS011;10614;53.198;6.570;2022-09-29T06:54:12;11.23;;;5.78;;
20908;SDS011;10614;53.198;6.570;2022-09-29T06:56:15;10.82;;;5.80;;
20908;SDS011;10614;53.198;6.570;2022-09-29T06:58:19;10.82;;;6.18;;
20908;SDS011;10614;53.198;6.570;2022-09-29T07:00:20;10.48;;;5.47;;
20908;SDS011;10614;53.198;6.570;2022-09-29T07:02:22;10.07;;;5.40;;
20908;SDS011;10614;53.198;6.570;2022-09-29T07:04:24;10.48;;;5.75;;
20908;SDS011;10614;53.198;6.570;2022-09-29T07:06:25;13.13;;;5.70;;
20908;SDS011;10614;53.198;6.570;2022-09-29T07:08:28;11.40;;;6.28;;
20908;SDS011;10614;53.198;6.570;2022-09-29T07:10:30;11.63;;;6.45;;
20908;SDS011;10614;53.198;6.570;2022-09-29T07:12:32;10.45;;;5.50;;
20908;SDS011;10614;53.198;6.570;2022-09-29T07:14:35;9.80;;;6.15;;
20908;SDS011;10614;53.198;6.570;2022-09-29T07:16:37;11.40;;;6.10;;
20908;SDS011;10614;53.198;6.570;2022-09-29T07:18:39;11.10;;;6.63;;
20908;SDS011;10614;53.198;6.570;2022-09-29T07:20:42;10.63;;;6.40;;
20908;SDS011;10614;53.198;6.570;2022-09-29T07:22:45;10.00;;;5.97;;
20908;SDS011;10614;53.198;6.570;2022-09-29T07:24:47;10.88;;;6.50;;
20908;SDS011;10614;53.198;6.570;2022-09-29T07:26:50;9.93;;;5.68;;
20908;SDS011;10614;53.198;6.570;2022-09-29T07:28:51;10.95;;;6.40;;
20908;SDS011;10614;53.198;6.570;2022-09-29T07:30:59;10.85;;;6.65;;
20908;SDS011;10614;53.198;6.570;2022-09-29T07:33:02;12.85;;;7.05;;
20908;SDS011;10614;53.198;6.570;2022-09-29T07:35:04;10.68;;;6.28;;
20908;SDS011;10614;53.198;6.570;2022-09-29T07:37:06;11.18;;;6.00;;
20908;SDS011;10614;53.198;6.570;2022-09-29T07:39:08;12.20;;;6.75;;
20908;SDS011;10614;53.198;6.570;2022-09-29T07:41:09;11.65;;;7.30;;
20908;SDS011;10614;53.198;6.570;2022-09-29T07:43:11;12.20;;;6.85;;
20908;SDS011;10614;53.198;6.570;2022-09-29T07:45:13;11.55;;;6.63;;
20908;SDS011;10614;53.198;6.570;2022-09-29T07:47:16;11.88;;;6.38;;
20908;SDS011;10614;53.198;6.570;2022-09-29T07:49:18;12.35;;;7.05;;
20908;SDS011;10614;53.198;6.570;2022-09-29T07:51:19;11.90;;;6.72;;
20908;SDS011;10614;53.198;6.570;2022-09-29T07:53:21;12.93;;;7.30;;
20908;SDS011;10614;53.198;6.570;2022-09-29T07:55:23;13.30;;;7.07;;
20908;SDS011;10614;53.198;6.570;2022-09-29T07:57:26;13.77;;;7.32;;
20908;SDS011;10614;53.198;6.570;2022-09-29T07:59:28;11.32;;;6.65;;
20908;SDS011;10614;53.198;6.570;2022-09-29T08:01:30;12.77;;;7.40;;
20908;SDS011;10614;53.198;6.570;2022-09-29T08:03:33;14.20;;;7.28;;
20908;SDS011;10614;53.198;6.570;2022-09-29T08:05:35;11.48;;;6.25;;
20908;SDS011;10614;53.198;6.570;2022-09-29T08:07:37;12.30;;;6.72;;
20908;SDS011;10614;53.198;6.570;2022-09-29T08:09:39;12.57;;;6.57;;
20908;SDS011;10614;53.198;6.570;2022-09-29T08:11:41;13.18;;;7.40;;
20908;SDS011;10614;53.198;6.570;2022-09-29T08:13:44;14.50;;;6.82;;
20908;SDS011;10614;53.198;6.570;2022-09-29T08:15:46;11.45;;;6.57;;
20908;SDS011;10614;53.198;6.570;2022-09-29T08:17:48;12.82;;;6.63;;
20908;SDS011;10614;53.198;6.570;2022-09-29T08:19:53;14.02;;;7.40;;
20908;SDS011;10614;53.198;6.570;2022-09-29T08:21:54;12.82;;;6.75;;
20908;SDS011;10614;53.198;6.570;2022-09-29T08:23:56;12.60;;;7.55;;
20908;SDS011;10614;53.198;6.570;2022-09-29T08:25:58;11.38;;;6.82;;
20908;SDS011;10614;53.198;6.570;2022-09-29T08:28:01;10.82;;;6.63;;
20908;SDS011;10614;53.198;6.570;2022-09-29T08:30:03;13.10;;;7.45;;
20908;SDS011;10614;53.198;6.570;2022-09-29T08:32:05;11.43;;;6.95;;
20908;SDS011;10614;53.198;6.570;2022-09-29T08:34:07;11.40;;;6.88;;
20908;SDS011;10614;53.198;6.570;2022-09-29T08:36:11;15.02;;;7.32;;
20908;SDS011;10614;53.198;6.570;2022-09-29T08:38:15;13.45;;;7.13;;
20908;SDS011;10614;53.198;6.570;2022-09-29T08:40:17;11.65;;;6.90;;
20908;SDS011;10614;53.198;6.570;2022-09-29T08:42:20;15.35;;;7.53;;
20908;SDS011;10614;53.198;6.570;2022-09-29T08:44:33;13.10;;;7.72;;
20908;SDS011;10614;53.198;6.570;2022-09-29T08:46:41;17.13;;;8.98;;
20908;SDS011;10614;53.198;6.570;2022-09-29T08:48:46;14.48;;;7.95;;
20908;SDS011;10614;53.198;6.570;2022-09-29T08:50:48;13.52;;;8.00;;
20908;SDS011;10614;53.198;6.570;2022-09-29T08:52:58;12.63;;;7.95;;
20908;SDS011;10614;53.198;6.570;2022-09-29T08:55:07;13.70;;;8.15;;
20908;SDS011;10614;53.198;6.570;2022-09-29T08:57:23;16.35;;;8.75;;
20908;SDS011;10614;53.198;6.570;2022-09-29T08:59:25;14.23;;;7.43;;
20908;SDS011;10614;53.198;6.570;2022-09-29T09:01:31;14.50;;;7.70;;
20908;SDS011;10614;53.198;6.570;2022-09-29T09:03:45;13.95;;;7.65;;
20908;SDS011;10614;53.198;6.570;2022-09-29T09:06:09;11.27;;;6.82;;
20908;SDS011;10614;53.198;6.570;2022-09-29T09:08:18;12.73;;;7.32;;
20908;SDS011;10614;53.198;6.570;2022-09-29T09:10:37;14.73;;;7.57;;
20908;SDS011;10614;53.198;6.570;2022-09-29T09:12:50;12.85;;;7.57;;
20908;SDS011;10614;53.198;6.570;2022-09-29T09:15:28;13.15;;;7.45;;
20908;SDS011;10614;53.198;6.570;2022-09-29T09:17:43;13.15;;;7.38;;
20908;SDS011;10614;53.198;6.570;2022-09-29T09:22:20;13.40;;;6.65;;
20908;SDS011;10614;53.198;6.570;2022-09-29T09:24:25;12.27;;;7.25;;
20908;SDS011;10614;53.198;6.570;2022-09-29T09:26:37;11.15;;;6.10;;
20908;SDS011;10614;53.198;6.570;2022-09-29T09:28:42;12.00;;;6.35;;
20908;SDS011;10614;53.198;6.570;2022-09-29T09:30:49;8.73;;;5.20;;
20908;SDS011;10614;53.198;6.570;2022-09-29T09:32:54;10.77;;;5.13;;
20908;SDS011;10614;53.198;6.570;2022-09-29T09:34:58;8.48;;;4.72;;
20908;SDS011;10614;53.198;6.570;2022-09-29T09:37:04;8.50;;;4.47;;
20908;SDS011;10614;53.198;6.570;2022-09-29T09:39:09;8.83;;;4.97;;
20908;SDS011;10614;53.198;6.570;2022-09-29T09:41:15;7.80;;;4.43;;
20908;SDS011;10614;53.198;6.570;2022-09-29T09:43:19;10.57;;;5.20;;
20908;SDS011;10614;53.198;6.570;2022-09-29T09:45:26;8.07;;;4.25;;
20908;SDS011;10614;53.198;6.570;2022-09-29T09:47:32;9.55;;;5.07;;
20908;SDS011;10614;53.198;6.570;2022-09-29T09:49:38;10.57;;;4.93;;
20908;SDS011;10614;53.198;6.570;2022-09-29T09:51:45;9.80;;;4.68;;
20908;SDS011;10614;53.198;6.570;2022-09-29T09:53:54;8.68;;;3.65;;
20908;SDS011;10614;53.198;6.570;2022-09-29T09:56:01;6.93;;;3.45;;
20908;SDS011;10614;53.198;6.570;2022-09-29T09:58:27;6.88;;;3.10;;
20908;SDS011;10614;53.198;6.570;2022-09-29T10:00:43;5.10;;;2.75;;
20908;SDS011;10614;53.198;6.570;2022-09-29T10:02:48;6.53;;;2.58;;
20908;SDS011;10614;53.198;6.570;2022-09-29T10:04:52;5.43;;;2.63;;
20908;SDS011;10614;53.198;6.570;2022-09-29T10:06:55;6.88;;;3.08;;
20908;SDS011;10614;53.198;6.570;2022-09-29T10:08:57;5.15;;;2.45;;
20908;SDS011;10614;53.198;6.570;2022-09-29T10:10:59;5.53;;;3.05;;
20908;SDS011;10614;53.198;6.570;2022-09-29T10:13:02;5.75;;;2.55;;
20908;SDS011;10614;53.198;6.570;2022-09-29T10:15:16;6.07;;;2.90;;
20908;SDS011;10614;53.198;6.570;2022-09-29T10:17:22;7.07;;;3.20;;
20908;SDS011;10614;53.198;6.570;2022-09-29T10:21:54;5.95;;;2.85;;
20908;SDS011;10614;53.198;6.570;2022-09-29T10:24:23;4.60;;;2.50;;
20908;SDS011;10614;53.198;6.570;2022-09-29T10:26:28;4.07;;;2.25;;
20908;SDS011;10614;53.198;6.570;2022-09-29T10:28:37;5.70;;;2.80;;
20908;SDS011;10614;53.198;6.570;2022-09-29T10:30:43;4.70;;;2.38;;
20908;SDS011;10614;53.198;6.570;2022-09-29T10:32:45;5.97;;;2.72;;
20908;SDS011;10614;53.198;6.570;2022-09-29T10:34:48;4.50;;;2.20;;
20908;SDS011;10614;53.198;6.570;2022-09-29T10:36:53;6.25;;;2.60;;
20908;SDS011;10614;53.198;6.570;2022-09-29T10:38:58;3.55;;;2.08;;
20908;SDS011;10614;53.198;6.570;2022-09-29T10:41:01;3.85;;;2.00;;
20908;SDS011;10614;53.198;6.570;2022-09-29T10:43:24;2.67;;;1.50;;
20908;SDS011;10614;53.198;6.570;2022-09-29T10:45:31;4.65;;;2.00;;
20908;SDS011;10614;53.198;6.570;2022-09-29T10:48:05;2.90;;;1.67;;
20908;SDS011;10614;53.198;6.570;2022-09-29T10:50:13;3.70;;;2.25;;
20908;SDS011;10614;53.198;6.570;2022-09-29T10:52:21;4.43;;;2.00;;
20908;SDS011;10614;53.198;6.570;2022-09-29T10:54:26;2.97;;;1.75;;
20908;SDS011;10614;53.198;6.570;2022-09-29T10:56:29;4.73;;;1.80;;
20908;SDS011;10614;53.198;6.570;2022-09-29T10:58:33;3.65;;;1.80;;
20908;SDS011;10614;53.198;6.570;2022-09-29T11:02:40;3.40;;;1.52;;
20908;SDS011;10614;53.198;6.570;2022-09-29T11:04:43;2.88;;;1.40;;
20908;SDS011;10614;53.198;6.570;2022-09-29T11:06:47;2.60;;;1.40;;
20908;SDS011;10614;53.198;6.570;2022-09-29T11:08:54;3.08;;;1.63;;
20908;SDS011;10614;53.198;6.570;2022-09-29T11:11:04;2.25;;;1.20;;
20908;SDS011;10614;53.198;6.570;2022-09-29T11:15:39;2.13;;;1.25;;
20908;SDS011;10614;53.198;6.570;2022-09-29T11:17:42;2.22;;;1.20;;
20908;SDS011;10614;53.198;6.570;2022-09-29T11:19:50;2.40;;;1.38;;
20908;SDS011;10614;53.198;6.570;2022-09-29T11:27:13;2.85;;;1.15;;
20908;SDS011;10614;53.198;6.570;2022-09-29T11:29:31;2.40;;;1.10;;
20908;SDS011;10614;53.198;6.570;2022-09-29T11:31:38;1.33;;;0.70;;
20908;SDS011;10614;53.198;6.570;2022-09-29T11:33:55;2.42;;;0.90;;
20908;SDS011;10614;53.198;6.570;2022-09-29T11:36:07;1.45;;;0.98;;
20908;SDS011;10614;53.198;6.570;2022-09-29T11:38:21;1.55;;;0.82;;
20908;SDS011;10614;53.198;6.570;2022-09-29T11:40:35;2.45;;;1.33;;
20908;SDS011;10614;53.198;6.570;2022-09-29T11:42:50;3.72;;;1.02;;
20908;SDS011;10614;53.198;6.570;2022-09-29T11:45:07;1.35;;;0.80;;
20908;SDS011;10614;53.198;6.570;2022-09-29T11:47:18;2.63;;;1.27;;
20908;SDS011;10614;53.198;6.570;2022-09-29T11:49:36;4.60;;;1.17;;
20908;SDS011;10614;53.198;6.570;2022-09-29T11:51:59;6.10;;;1.88;;
20908;SDS011;10614;53.198;6.570;2022-09-29T11:54:17;2.38;;;1.40;;
20908;SDS011;10614;53.198;6.570;2022-09-29T11:56:32;3.25;;;1.23;;
20908;SDS011;10614;53.198;6.570;2022-09-29T11:58:44;3.70;;;1.30;;
20908;SDS011;10614;53.198;6.570;2022-09-29T12:01:00;2.13;;;1.00;;
20908;SDS011;10614;53.198;6.570;2022-09-29T12:03:20;4.47;;;1.13;;
20908;SDS011;10614;53.198;6.570;2022-09-29T12:05:31;3.00;;;0.85;;
20908;SDS011;10614;53.198;6.570;2022-09-29T12:07:43;1.65;;;0.90;;
20908;SDS011;10614;53.198;6.570;2022-09-29T12:09:59;1.85;;;1.02;;
20908;SDS011;10614;53.198;6.570;2022-09-29T12:12:14;2.45;;;0.90;;
20908;SDS011;10614;53.198;6.570;2022-09-29T12:14:23;2.17;;;0.90;;
20908;SDS011;10614;53.198;6.570;2022-09-29T12:16:34;1.42;;;0.70;;
20908;SDS011;10614;53.198;6.570;2022-09-29T12:18:40;3.05;;;0.93;;
20908;SDS011;10614;53.198;6.570;2022-09-29T12:20:51;1.48;;;0.75;;
20908;SDS011;10614;53.198;6.570;2022-09-29T12:22:55;0.63;;;0.50;;
20908;SDS011;10614;53.198;6.570;2022-09-29T12:25:01;1.48;;;0.60;;
20908;SDS011;10614;53.198;6.570;2022-09-29T12:27:04;0.45;;;0.40;;
20908;SDS011;10614;53.198;6.570;2022-09-29T12:29:21;0.63;;;0.40;;
20908;SDS011;10614;53.198;6.570;2022-09-29T12:31:34;0.70;;;0.30;;
20908;SDS011;10614;53.198;6.570;2022-09-29T12:33:39;0.80;;;0.40;;
20908;SDS011;10614;53.198;6.570;2022-09-29T12:35:45;1.92;;;0.73;;
20908;SDS011;10614;53.198;6.570;2022-09-29T12:37:56;3.28;;;0.80;;
20908;SDS011;10614;53.198;6.570;2022-09-29T12:40:02;1.13;;;0.70;;
20908;SDS011;10614;53.198;6.570;2022-09-29T12:42:19;2.95;;;0.80;;
20908;SDS011;10614;53.198;6.570;2022-09-29T12:44:33;1.95;;;0.85;;
20908;SDS011;10614;53.198;6.570;2022-09-29T12:46:42;3.40;;;0.70;;
20908;SDS011;10614;53.198;6.570;2022-09-29T12:48:50;2.05;;;0.90;;
20908;SDS011;10614;53.198;6.570;2022-09-29T12:51:01;1.42;;;0.60;;
20908;SDS011;10614;53.198;6.570;2022-09-29T12:53:11;1.67;;;0.98;;
20908;SDS011;10614;53.198;6.570;2022-09-29T12:55:18;4.25;;;0.70;;
20908;SDS011;10614;53.198;6.570;2022-09-29T12:57:29;1.25;;;0.70;;
20908;SDS011;10614;53.198;6.570;2022-09-29T12:59:35;0.95;;;0.50;;
20908;SDS011;10614;53.198;6.570;2022-09-29T13:01:41;1.48;;;0.90;;